Latest Weather Observations for Halls Creek

IDD60801

Issued at 9:31 pm CST Wednesday 7 December 2016 (issued every 30 minutes, with the page automatically refreshed every 10 minutes)

About weather observations | Map of weather stations | Latest weather observations for NT | Other Formats
Station Details ID: 002012 Name: HALLS CREEK AIRPORT Lat: -18.23 Lon: 127.66 Height: 422.0 m
Data from the previous 72 hours. | See also: Recent months at Halls Creek
Date/Time
CST
Temp
°C
App
Temp
°C
Dew
Point
°C
Rel
Hum
%
Delta-T
°C
Wind Press
QNH
hPa
Press
MSL
hPa
Rain since
9am
mm
Dir  Spd
km/h
Gust
km/h
Spd
kts
Gust
kts
07/09:00pm 33.7 33.6 12.1 27 13.1 W 4 7 2 4 1009.2 - 0.0
07/08:30pm 34.2 34.8 12.0 26 13.4 CALM 0 4 0 2 1008.7 - 0.0
07/08:00pm 34.4 34.5 11.5 25 13.7 WSW 2 4 1 2 1008.3 - 0.0
07/07:30pm 35.2 35.3 11.6 24 14.3 S 2 2 1 1 1008.0 1004.4 0.0
07/07:00pm 36.4 35.9 10.6 21 15.4 SE 4 9 2 5 1007.7 - 0.0
07/06:30pm 37.5 36.8 10.0 19 16.3 N 4 7 2 4 1007.4 - 0.0
07/06:00pm 38.1 37.2 7.9 16 17.4 N 2 7 1 4 1007.2 - 0.0
07/05:30pm 38.3 37.2 10.6 19 16.7 SE 7 19 4 10 1007.2 - 0.0
07/05:00pm 38.8 38.4 11.0 19 16.8 ENE 4 9 2 5 1007.2 - 0.0
07/04:30pm 37.8 37.4 11.0 20 16.2 NNE 4 11 2 6 1007.4 1003.9 0.0
07/04:00pm 37.5 36.6 11.5 21 15.8 NNE 7 17 4 9 1007.8 - 0.0
07/03:30pm 38.9 38.4 11.9 20 16.6 SE 6 15 3 8 1008.0 - 0.0
07/03:00pm 38.5 38.0 10.8 19 16.7 NE 4 13 2 7 1008.5 - 0.0
07/02:30pm 36.9 36.5 13.0 24 14.8 ENE 7 19 4 10 1008.9 - 0.0
07/02:00pm 38.2 38.1 13.4 23 15.5 E 6 15 3 8 1009.2 - 0.0
07/01:30pm 37.8 37.7 15.0 26 14.6 ESE 9 20 5 11 1009.7 1006.2 0.0
07/01:00pm 36.1 36.5 15.2 28 13.3 E 7 19 4 10 1010.4 - 0.0
07/12:30pm 36.5 37.2 15.6 29 13.4 E 6 19 3 10 1011.0 - 0.0
07/12:00pm 35.9 36.6 16.1 30 12.8 E 7 17 4 9 1011.5 - 0.0
07/11:30am 34.6 34.1 16.0 33 11.9 E 13 30 7 16 1011.8 - 0.0
07/11:00am 35.1 34.6 16.9 34 11.8 ESE 15 32 8 17 1012.1 - 0.0
07/10:30am 33.9 32.9 16.7 35 11.1 ESE 17 32 9 17 1012.3 1008.8 0.6
07/10:00am 33.1 32.2 16.9 38 10.5 SE 17 30 9 16 1012.7 - 0.6
07/09:30am 33.1 32.8 17.3 39 10.3 SE 15 28 8 15 1012.8 - 0.6
07/09:00am 31.4 30.5 16.9 41 9.3 SE 17 28 9 15 1012.8 - 0.6
07/08:30am 30.4 30.7 17.8 46 8.2 SE 13 22 7 12 1012.8 - 0.6
07/08:00am 29.1 29.5 18.2 51 7.1 SE 13 26 7 14 1012.6 - 0.6
07/07:30am 27.8 29.0 18.2 56 6.2 SSE 9 19 5 10 1012.3 1008.8 0.6
07/07:00am 26.1 28.5 19.7 68 4.2 SSE 6 11 3 6 1012.2 - 0.6
07/06:30am 24.5 27.2 20.2 77 2.8 S 6 9 3 5 1011.8 - 0.6
07/06:00am 23.7 27.0 20.8 84 1.9 S 4 7 2 4 1011.3 - 0.6
07/05:30am 23.9 27.6 20.8 83 2.1 SSW 2 6 1 3 1011.2 - 0.6
07/05:00am 24.0 27.4 20.9 83 2.1 SW 4 6 2 3 1011.0 - 0.6
07/04:30am 24.0 27.8 20.9 83 2.1 SW 2 4 1 2 1010.8 1007.2 0.6
07/04:00am 23.8 27.9 21.5 87 1.5 W 2 4 1 2 1010.9 - 0.6
07/03:30am 24.0 28.0 21.3 85 1.8 SSW 2 2 1 1 1011.0 - 0.6
07/03:00am 24.4 28.4 21.3 83 2.1 W 2 6 1 3 1010.8 - 0.6
07/02:30am 24.5 27.9 21.0 81 2.3 W 4 6 2 3 1010.8 - 0.6
07/02:00am 24.6 27.9 20.7 79 2.6 WNW 4 7 2 4 1010.7 - 0.6
07/01:30am 24.8 28.0 20.5 77 2.9 WSW 4 6 2 3 1010.8 1007.2 0.6
07/01:00am 25.1 28.5 20.1 74 3.3 SSW 2 6 1 3 1011.2 - 0.6
07/12:30am 25.9 28.2 19.5 68 4.2 WNW 6 7 3 4 1011.5 - 0.6
07/12:00am 25.9 28.8 19.8 69 4.0 SSW 4 9 2 5 1011.4 - 0.6
 
Date/Time
CST
Temp
°C
App
Temp
°C
Dew
Point
°C
Rel
Hum
%
Delta-T
°C
Wind Press
QNH
hPa
Press
MSL
hPa
Rain since
9am
mm
Dir  Spd
km/h
Gust
km/h
Spd
kts
Gust
kts
06/11:30pm 26.4 28.7 19.8 67 4.4 SW 7 17 4 9 1011.6 - 0.6
06/11:00pm 26.7 29.3 20.1 67 4.4 SSW 6 15 3 8 1012.0 - 0.6
06/10:30pm 27.0 28.7 20.1 66 4.6 SSW 11 30 6 16 1011.9 1008.4 0.6
06/10:00pm 26.8 28.2 20.4 68 4.3 S 13 26 7 14 1012.0 - 0.6
06/09:30pm 27.1 28.3 20.7 68 4.3 S 15 33 8 18 1012.2 - 0.6
06/09:00pm 27.3 28.8 20.6 67 4.5 S 13 24 7 13 1012.3 - 0.6
06/08:30pm 26.8 29.6 20.4 68 4.3 SSE 6 13 3 7 1012.4 - 0.6
06/08:00pm 27.0 29.3 20.6 68 4.3 SSE 9 17 5 9 1011.5 - 0.6
06/07:30pm 26.9 29.3 20.0 66 4.6 SW 7 19 4 10 1010.1 1006.5 0.6
06/07:00pm 27.4 28.8 19.5 62 5.2 SW 11 26 6 14 1009.3 - 0.6
06/06:30pm 27.5 28.8 20.1 64 4.9 SSW 13 33 7 18 1008.9 - 0.6
06/06:00pm 27.8 29.2 20.4 64 4.9 SSW 13 28 7 15 1008.8 - 0.6
06/05:30pm 28.1 28.5 19.9 61 5.4 SW 17 37 9 20 1008.6 - 0.6
06/05:00pm 30.0 32.5 20.3 56 6.5 W 7 15 4 8 1008.3 - 0.6
06/04:30pm 29.3 31.0 18.4 51 7.1 WNW 7 13 4 7 1008.9 1005.3 0.4
06/04:00pm 29.5 31.9 20.1 57 6.3 WNW 7 15 4 8 1009.0 - 0.2
06/03:30pm 32.2 32.1 16.9 40 9.9 NNW 13 26 7 14 1009.0 - 0.0
06/03:00pm 32.8 33.0 15.8 36 10.8 NE 9 24 5 13 1009.0 - 0.0
06/02:30pm 37.0 37.3 14.9 27 14.1 SE 7 17 4 9 1009.1 - 0.0
06/02:00pm 36.7 36.7 14.1 26 14.2 NE 7 17 4 9 1009.6 - 0.0
06/01:30pm 37.1 38.2 15.5 27 13.9 ENE 4 7 2 4 1010.3 1006.7 0.0
06/01:00pm 35.7 36.1 15.4 29 12.9 E 7 19 4 10 1011.0 - 0.0
06/12:30pm 35.9 35.5 15.1 29 13.2 SE 11 26 6 14 1011.4 - 0.0
06/12:00pm 36.1 35.7 15.2 28 13.3 ESE 11 32 6 17 1011.7 - 0.0
06/11:30am 36.0 35.8 15.7 30 13.0 SSE 11 24 6 13 1012.2 - 0.0
06/11:00am 35.8 35.7 16.0 30 12.7 SE 11 22 6 12 1012.7 - 0.0
06/10:30am 35.7 35.8 16.4 31 12.5 SSE 11 30 6 16 1013.0 1009.4 0.0
06/10:00am 34.9 34.9 16.2 32 12.0 SSE 11 24 6 13 1013.1 - 0.0
06/09:30am 34.1 34.5 17.3 36 10.9 SSE 11 19 6 10 1013.2 - 0.0
06/09:00am 32.7 33.5 18.1 42 9.6 SSE 11 20 6 11 1013.1 - 0.0
06/08:30am 29.9 32.6 20.2 56 6.5 SW 6 13 3 7 1013.1 - 0.0
06/08:00am 29.0 31.9 20.7 61 5.6 SW 6 13 3 7 1012.9 - 0.0
06/07:30am 27.3 29.9 20.4 66 4.6 WSW 7 15 4 8 1012.7 1009.1 0.0
06/07:00am 26.5 29.7 20.6 70 3.9 SW 4 11 2 6 1012.6 - 0.0
06/06:30am 25.1 28.4 19.9 73 3.4 WSW 2 4 1 2 1012.4 - 0.0
06/06:00am 25.5 28.5 20.1 72 3.6 SW 4 7 2 4 1012.2 - 0.0
06/05:30am 25.8 28.4 20.1 71 3.8 W 6 9 3 5 1012.0 - 0.0
06/05:00am 26.0 28.4 19.6 68 4.2 W 6 11 3 6 1011.8 - 0.0
06/04:30am 25.7 28.2 19.1 67 4.3 W 4 9 2 5 1011.6 1008.1 0.0
06/04:00am 25.5 28.5 19.2 68 4.1 WNW 2 4 1 2 1011.4 - 0.0
06/03:30am 25.6 28.6 19.3 68 4.1 W 2 6 1 3 1011.3 - 0.0
06/03:00am 26.0 28.8 19.6 68 4.2 WSW 4 9 2 5 1011.1 - 0.0
06/02:30am 26.1 29.2 19.5 67 4.3 W 2 7 1 4 1011.2 - 0.0
06/02:00am 26.2 29.3 19.6 67 4.3 W 2 4 1 2 1011.3 - 0.0
06/01:30am 26.4 28.9 19.8 67 4.4 W 6 11 3 6 1011.5 1008.0 0.0
06/01:00am 26.7 29.1 19.6 65 4.7 WNW 6 15 3 8 1011.7 - 0.0
06/12:30am 27.1 29.1 19.2 62 5.2 WNW 7 13 4 7 1011.9 - 0.0
06/12:00am 27.1 29.1 19.2 62 5.2 W 7 19 4 10 1012.3 - 0.0
 
Date/Time
CST
Temp
°C
App
Temp
°C
Dew
Point
°C
Rel
Hum
%
Delta-T
°C
Wind Press
QNH
hPa
Press
MSL
hPa
Rain since
9am
mm
Dir  Spd
km/h
Gust
km/h
Spd
kts
Gust
kts
05/11:30pm 26.9 29.3 18.7 60 5.3 SW 4 7 2 4 1012.3 - 0.0
05/11:00pm 26.7 29.1 18.8 62 5.1 SSW 4 11 2 6 1012.8 - 0.0
05/10:30pm 26.8 28.9 18.9 62 5.2 S 6 11 3 6 1012.8 1009.2 0.0
05/10:00pm 27.0 29.0 18.8 60 5.3 SSW 6 9 3 5 1012.6 - 0.0
05/09:30pm 27.2 29.2 18.8 60 5.5 S 6 11 3 6 1012.4 - 0.0
05/09:00pm 26.5 28.9 19.6 66 4.5 S 6 11 3 6 1012.2 - 0.0
05/08:30pm 26.1 28.1 20.0 69 4.0 SE 9 17 5 9 1012.1 - 0.0
05/08:00pm 26.2 28.5 19.8 68 4.2 SSE 7 15 4 8 1011.7 - 0.0
05/07:30pm 25.8 26.6 19.9 70 3.9 SE 15 24 8 13 1011.6 1008.1 0.0
05/07:00pm 27.7 27.6 19.5 61 5.4 ESE 19 28 10 15 1011.2 - 0.0
05/06:30pm 30.7 31.5 17.4 45 8.6 SSE 9 17 5 9 1009.9 - 0.0
05/06:00pm 31.6 32.9 17.1 41 9.3 W 6 15 3 8 1009.4 - 0.0
05/05:30pm 29.5 28.9 18.9 53 7.0 NW 20 37 11 20 1009.0 - 0.0
05/05:17pm 30.8 29.6 17.1 43 8.8 NNW 19 35 10 19 1008.9 - 0.0
05/05:00pm 35.9 36.0 14.5 27 13.5 WNW 7 19 4 10 1008.4 - 0.0
05/04:30pm 36.6 36.8 14.6 27 13.9 WNW 7 15 4 8 1008.4 1004.8 0.0
05/04:00pm 35.1 35.4 14.9 29 12.8 NW 7 15 4 8 1008.7 - 0.0
05/03:30pm 35.3 35.8 15.1 30 12.8 NW 6 13 3 7 1009.2 - 0.0
05/03:00pm 35.4 35.4 15.2 30 12.8 SW 9 17 5 9 1009.7 - 0.0
05/02:30pm 34.8 35.5 15.7 32 12.2 W 6 15 3 8 1010.4 - 0.0
05/02:00pm 32.8 34.0 15.8 36 10.8 WSW 4 11 2 6 1011.0 - 0.0
05/01:30pm 31.6 32.6 16.3 39 9.8 WNW 6 15 3 8 1011.6 1008.1 0.0
05/01:00pm 31.3 31.8 16.5 41 9.5 W 9 15 5 8 1011.9 - 0.0
05/12:30pm 31.5 33.0 18.1 44 8.8 W 7 17 4 9 1012.1 - 0.0
05/12:00pm 30.8 32.7 18.5 47 8.1 SSW 6 11 3 6 1012.3 - 0.0
05/11:30am 29.4 31.6 19.1 54 6.8 WSW 6 11 3 6 1012.7 - 0.0
05/11:00am 28.7 31.5 19.6 58 6.0 S 4 11 2 6 1012.8 - 0.0
05/10:30am 27.4 30.4 20.0 64 4.9 SSE 4 9 2 5 1013.0 1009.4 0.2
05/10:00am 26.6 29.8 20.4 69 4.1 SW 4 9 2 5 1012.9 - 0.2
05/09:30am 25.9 28.9 20.9 74 3.3 SW 6 11 3 6 1012.9 - 0.2
05/09:00am 25.6 29.2 21.3 77 2.9 SW 4 9 2 5 1012.9 - 0.2
05/08:30am 25.0 28.7 21.5 81 2.4 SSW 4 9 2 5 1012.7 - 0.2
05/08:00am 24.4 27.3 21.1 82 2.2 SW 7 17 4 9 1012.4 - 0.2
05/07:30am 24.3 27.3 21.2 83 2.1 SW 7 15 4 8 1012.4 1008.9 0.2
05/07:00am 24.1 27.5 21.6 86 1.7 SW 6 13 3 7 1012.3 - 0.2
05/06:30am 23.9 26.9 21.2 85 1.8 WSW 7 15 4 8 1011.8 - 0.2
05/06:00am 24.0 26.5 21.1 84 1.9 WSW 9 22 5 12 1011.5 - 0.2
05/05:30am 24.5 27.2 21.4 83 2.1 SW 9 24 5 13 1011.5 - 0.2
05/05:00am 25.3 27.9 21.2 78 2.7 W 9 24 5 13 1010.9 - 0.2
05/04:30am 25.4 28.4 21.9 81 2.4 W 9 22 5 12 1010.8 1007.2 0.2
05/04:00am 25.3 28.3 22.0 82 2.2 W 9 20 5 11 1011.0 - 0.2
05/03:30am 25.6 29.2 22.1 81 2.4 W 6 11 3 6 1011.1 - 0.2
05/03:00am 26.0 29.4 21.7 77 2.9 W 6 13 3 7 1011.2 - 0.0
05/02:30am 26.2 29.8 21.2 74 3.4 WSW 4 7 2 4 1011.5 - 0.0
05/02:00am 26.2 30.1 21.2 74 3.4 SSW 2 4 1 2 1011.3 - 0.0
05/01:30am 26.0 29.4 21.0 74 3.4 NW 4 7 2 4 1011.3 1007.8 0.0
05/01:00am 26.0 29.8 21.7 77 2.9 WNW 4 7 2 4 1011.7 - 0.0
05/12:30am 25.9 28.7 20.9 74 3.3 WNW 7 15 4 8 1011.7 - 0.0
05/12:00am 25.9 29.5 21.3 76 3.1 W 4 7 2 4 1011.7 - 0.0
 
Date/Time
CST
Temp
°C
App
Temp
°C
Dew
Point
°C
Rel
Hum
%
Delta-T
°C
Wind Press
QNH
hPa
Press
MSL
hPa
Rain since
9am
mm
Dir  Spd
km/h
Gust
km/h
Spd
kts
Gust
kts
04/11:30pm 25.9 29.2 20.7 73 3.5 W 4 9 2 5 1011.8 - 0.0

Other Formats:

Comma delimited format used in spreadsheet applications
http://www.bom.gov.au/fwo/IDD60801/IDD60801.94212.axf

JavaScript Object Notation format (JSON) in row-major order
http://www.bom.gov.au/fwo/IDD60801/IDD60801.94212.json